sensor_id;sensor_type;location;lat;lon;timestamp;temperature;humidity
20512;DHT22;10414;52.074;5.126;2023-02-01T00:02:15;6.80;99.90
20512;DHT22;10414;52.074;5.126;2023-02-01T00:04:42;6.70;99.90
20512;DHT22;10414;52.074;5.126;2023-02-01T00:07:09;6.80;99.90
20512;DHT22;10414;52.074;5.126;2023-02-01T00:09:35;6.80;99.90
20512;DHT22;10414;52.074;5.126;2023-02-01T00:12:02;6.80;99.90
20512;DHT22;10414;52.074;5.126;2023-02-01T00:14:31;6.70;99.90
20512;DHT22;10414;52.074;5.126;2023-02-01T00:17:03;6.80;99.90
20512;DHT22;10414;52.074;5.126;2023-02-01T00:19:30;6.80;99.90
20512;DHT22;10414;52.074;5.126;2023-02-01T00:21:57;6.70;99.90
20512;DHT22;10414;52.074;5.126;2023-02-01T00:24:24;6.70;99.90
20512;DHT22;10414;52.074;5.126;2023-02-01T00:26:51;6.80;99.90
20512;DHT22;10414;52.074;5.126;2023-02-01T00:29:19;6.70;99.90
20512;DHT22;10414;52.074;5.126;2023-02-01T00:31:50;6.80;99.90
20512;DHT22;10414;52.074;5.126;2023-02-01T00:34:17;6.70;99.90
20512;DHT22;10414;52.074;5.126;2023-02-01T00:36:44;6.80;99.90
20512;DHT22;10414;52.074;5.126;2023-02-01T00:39:12;6.80;99.90
20512;DHT22;10414;52.074;5.126;2023-02-01T00:41:39;7.00;99.90
20512;DHT22;10414;52.074;5.126;2023-02-01T00:44:06;7.10;99.90
20512;DHT22;10414;52.074;5.126;2023-02-01T00:46:33;7.00;99.90
20512;DHT22;10414;52.074;5.126;2023-02-01T00:49:02;7.00;99.90
20512;DHT22;10414;52.074;5.126;2023-02-01T00:51:29;7.00;99.90
20512;DHT22;10414;52.074;5.126;2023-02-01T00:53:56;7.00;99.90
20512;DHT22;10414;52.074;5.126;2023-02-01T00:56:23;6.90;99.90
20512;DHT22;10414;52.074;5.126;2023-02-01T00:58:50;7.00;99.90
20512;DHT22;10414;52.074;5.126;2023-02-01T01:01:19;7.00;99.90
20512;DHT22;10414;52.074;5.126;2023-02-01T01:03:47;6.90;99.90
20512;DHT22;10414;52.074;5.126;2023-02-01T01:06:19;7.00;99.90
20512;DHT22;10414;52.074;5.126;2023-02-01T01:08:46;7.00;99.90
20512;DHT22;10414;52.074;5.126;2023-02-01T01:11:15;7.10;99.90
20512;DHT22;10414;52.074;5.126;2023-02-01T01:13:43;7.00;99.90
20512;DHT22;10414;52.074;5.126;2023-02-01T01:16:12;7.00;99.90
20512;DHT22;10414;52.074;5.126;2023-02-01T01:18:39;7.20;99.90
20512;DHT22;10414;52.074;5.126;2023-02-01T01:21:07;7.20;99.90
20512;DHT22;10414;52.074;5.126;2023-02-01T01:23:36;7.20;99.90
20512;DHT22;10414;52.074;5.126;2023-02-01T01:26:05;7.10;99.90
20512;DHT22;10414;52.074;5.126;2023-02-01T01:28:32;7.00;99.90
20512;DHT22;10414;52.074;5.126;2023-02-01T01:30:59;7.00;99.90
20512;DHT22;10414;52.074;5.126;2023-02-01T01:33:26;7.00;99.90
20512;DHT22;10414;52.074;5.126;2023-02-01T01:35:53;7.10;99.90
20512;DHT22;10414;52.074;5.126;2023-02-01T01:38:20;7.00;99.90
20512;DHT22;10414;52.074;5.126;2023-02-01T01:40:48;7.00;99.90
20512;DHT22;10414;52.074;5.126;2023-02-01T01:43:18;7.00;99.90
20512;DHT22;10414;52.074;5.126;2023-02-01T01:45:48;7.10;99.90
20512;DHT22;10414;52.074;5.126;2023-02-01T01:48:18;7.20;99.90
20512;DHT22;10414;52.074;5.126;2023-02-01T01:50:49;7.10;99.90
20512;DHT22;10414;52.074;5.126;2023-02-01T01:53:20;7.10;99.90
20512;DHT22;10414;52.074;5.126;2023-02-01T01:55:51;7.10;99.90
20512;DHT22;10414;52.074;5.126;2023-02-01T01:58:22;7.20;99.90
20512;DHT22;10414;52.074;5.126;2023-02-01T02:00:52;7.30;99.90
20512;DHT22;10414;52.074;5.126;2023-02-01T02:03:21;7.40;99.90
20512;DHT22;10414;52.074;5.126;2023-02-01T02:05:50;7.40;99.90
20512;DHT22;10414;52.074;5.126;2023-02-01T02:08:18;7.40;99.90
20512;DHT22;10414;52.074;5.126;2023-02-01T02:10:48;7.40;99.90
20512;DHT22;10414;52.074;5.126;2023-02-01T02:13:31;7.50;99.90
20512;DHT22;10414;52.074;5.126;2023-02-01T02:16:12;7.60;99.90
20512;DHT22;10414;52.074;5.126;2023-02-01T02:18:49;7.70;99.90
20512;DHT22;10414;52.074;5.126;2023-02-01T02:21:33;7.60;99.90
20512;DHT22;10414;52.074;5.126;2023-02-01T02:24:32;7.70;99.90
20512;DHT22;10414;52.074;5.126;2023-02-01T02:27:14;7.80;99.90
20512;DHT22;10414;52.074;5.126;2023-02-01T02:33:38;7.70;99.90
20512;DHT22;10414;52.074;5.126;2023-02-01T02:36:10;7.90;99.90
20512;DHT22;10414;52.074;5.126;2023-02-01T02:38:44;7.80;99.90
20512;DHT22;10414;52.074;5.126;2023-02-01T02:41:17;7.90;99.90
20512;DHT22;10414;52.074;5.126;2023-02-01T02:44:00;7.80;99.90
20512;DHT22;10414;52.074;5.126;2023-02-01T02:47:03;7.80;99.90
20512;DHT22;10414;52.074;5.126;2023-02-01T02:50:01;7.80;99.90
20512;DHT22;10414;52.074;5.126;2023-02-01T02:52:53;7.80;99.90
20512;DHT22;10414;52.074;5.126;2023-02-01T02:55:41;7.80;99.90
20512;DHT22;10414;52.074;5.126;2023-02-01T02:58:11;7.90;99.90
20512;DHT22;10414;52.074;5.126;2023-02-01T03:00:56;7.90;99.90
20512;DHT22;10414;52.074;5.126;2023-02-01T03:03:41;7.90;99.90
20512;DHT22;10414;52.074;5.126;2023-02-01T03:06:27;8.00;99.90
20512;DHT22;10414;52.074;5.126;2023-02-01T03:08:57;7.90;99.90
20512;DHT22;10414;52.074;5.126;2023-02-01T03:11:25;7.70;99.90
20512;DHT22;10414;52.074;5.126;2023-02-01T03:14:14;7.70;99.90
20512;DHT22;10414;52.074;5.126;2023-02-01T03:16:46;7.80;99.90
20512;DHT22;10414;52.074;5.126;2023-02-01T03:19:17;7.70;99.90
20512;DHT22;10414;52.074;5.126;2023-02-01T03:21:49;7.60;99.90
20512;DHT22;10414;52.074;5.126;2023-02-01T03:24:20;7.60;99.90
20512;DHT22;10414;52.074;5.126;2023-02-01T03:27:02;7.50;99.90
20512;DHT22;10414;52.074;5.126;2023-02-01T03:29:38;7.50;99.90
20512;DHT22;10414;52.074;5.126;2023-02-01T03:32:07;7.30;99.90
20512;DHT22;10414;52.074;5.126;2023-02-01T03:34:35;7.30;99.90
20512;DHT22;10414;52.074;5.126;2023-02-01T03:37:05;7.20;99.90
20512;DHT22;10414;52.074;5.126;2023-02-01T03:39:37;7.20;99.90
20512;DHT22;10414;52.074;5.126;2023-02-01T03:42:07;7.20;99.90
20512;DHT22;10414;52.074;5.126;2023-02-01T03:44:40;7.20;99.90
20512;DHT22;10414;52.074;5.126;2023-02-01T03:47:12;7.10;99.90
20512;DHT22;10414;52.074;5.126;2023-02-01T03:49:43;7.10;99.90
20512;DHT22;10414;52.074;5.126;2023-02-01T03:52:13;7.10;99.90
20512;DHT22;10414;52.074;5.126;2023-02-01T03:54:41;7.20;99.90
20512;DHT22;10414;52.074;5.126;2023-02-01T03:57:12;7.30;99.90
20512;DHT22;10414;52.074;5.126;2023-02-01T03:59:40;7.30;99.90
20512;DHT22;10414;52.074;5.126;2023-02-01T04:02:08;7.50;99.90
20512;DHT22;10414;52.074;5.126;2023-02-01T04:04:36;7.60;99.90
20512;DHT22;10414;52.074;5.126;2023-02-01T04:07:03;7.60;99.90
20512;DHT22;10414;52.074;5.126;2023-02-01T04:09:31;7.60;99.90
20512;DHT22;10414;52.074;5.126;2023-02-01T04:11:58;7.60;99.90
20512;DHT22;10414;52.074;5.126;2023-02-01T04:14:25;7.70;99.90
20512;DHT22;10414;52.074;5.126;2023-02-01T04:16:52;7.70;99.90
20512;DHT22;10414;52.074;5.126;2023-02-01T04:19:19;7.70;99.90
20512;DHT22;10414;52.074;5.126;2023-02-01T04:21:46;7.70;99.90
20512;DHT22;10414;52.074;5.126;2023-02-01T04:24:13;7.80;99.90
20512;DHT22;10414;52.074;5.126;2023-02-01T04:26:41;7.70;99.90
20512;DHT22;10414;52.074;5.126;2023-02-01T04:29:09;7.80;99.90
20512;DHT22;10414;52.074;5.126;2023-02-01T04:31:36;7.70;99.90
20512;DHT22;10414;52.074;5.126;2023-02-01T04:34:02;7.70;99.90
20512;DHT22;10414;52.074;5.126;2023-02-01T04:36:29;7.70;99.90
20512;DHT22;10414;52.074;5.126;2023-02-01T04:38:56;7.60;99.90
20512;DHT22;10414;52.074;5.126;2023-02-01T04:41:23;7.60;99.90
20512;DHT22;10414;52.074;5.126;2023-02-01T04:43:51;7.70;99.90
20512;DHT22;10414;52.074;5.126;2023-02-01T04:46:18;7.70;99.90
20512;DHT22;10414;52.074;5.126;2023-02-01T04:48:45;7.60;99.90
20512;DHT22;10414;52.074;5.126;2023-02-01T04:51:12;7.60;99.90
20512;DHT22;10414;52.074;5.126;2023-02-01T04:53:40;7.50;99.90
20512;DHT22;10414;52.074;5.126;2023-02-01T04:56:07;7.40;99.90
20512;DHT22;10414;52.074;5.126;2023-02-01T04:58:34;7.40;99.90
20512;DHT22;10414;52.074;5.126;2023-02-01T05:01:04;7.40;99.90
20512;DHT22;10414;52.074;5.126;2023-02-01T05:03:31;7.40;99.90
20512;DHT22;10414;52.074;5.126;2023-02-01T05:05:58;7.30;99.90
20512;DHT22;10414;52.074;5.126;2023-02-01T05:08:26;7.20;99.90
20512;DHT22;10414;52.074;5.126;2023-02-01T05:10:54;7.30;99.90
20512;DHT22;10414;52.074;5.126;2023-02-01T05:13:21;7.20;99.90
20512;DHT22;10414;52.074;5.126;2023-02-01T05:16:07;7.00;99.90
20512;DHT22;10414;52.074;5.126;2023-02-01T05:18:34;7.00;99.90
20512;DHT22;10414;52.074;5.126;2023-02-01T05:21:00;7.10;99.90
20512;DHT22;10414;52.074;5.126;2023-02-01T05:23:27;7.10;99.90
20512;DHT22;10414;52.074;5.126;2023-02-01T05:25:58;7.10;99.90
20512;DHT22;10414;52.074;5.126;2023-02-01T05:28:25;7.10;99.90
20512;DHT22;10414;52.074;5.126;2023-02-01T05:30:52;7.00;99.90
20512;DHT22;10414;52.074;5.126;2023-02-01T05:33:20;6.90;99.90
20512;DHT22;10414;52.074;5.126;2023-02-01T05:35:47;6.90;99.90
20512;DHT22;10414;52.074;5.126;2023-02-01T05:38:16;6.90;99.90
20512;DHT22;10414;52.074;5.126;2023-02-01T05:40:43;7.00;99.90
20512;DHT22;10414;52.074;5.126;2023-02-01T05:43:14;7.10;99.90
20512;DHT22;10414;52.074;5.126;2023-02-01T05:45:41;7.20;99.90
20512;DHT22;10414;52.074;5.126;2023-02-01T05:48:08;7.30;99.90
20512;DHT22;10414;52.074;5.126;2023-02-01T05:50:37;7.40;99.90
20512;DHT22;10414;52.074;5.126;2023-02-01T05:53:04;7.30;99.90
20512;DHT22;10414;52.074;5.126;2023-02-01T05:55:31;7.30;99.90
20512;DHT22;10414;52.074;5.126;2023-02-01T05:57:58;7.40;99.90
20512;DHT22;10414;52.074;5.126;2023-02-01T06:00:25;7.40;99.90
20512;DHT22;10414;52.074;5.126;2023-02-01T06:02:52;7.30;99.90
20512;DHT22;10414;52.074;5.126;2023-02-01T06:05:19;7.30;99.90
20512;DHT22;10414;52.074;5.126;2023-02-01T06:07:48;7.20;99.90
20512;DHT22;10414;52.074;5.126;2023-02-01T06:10:16;7.10;99.90
20512;DHT22;10414;52.074;5.126;2023-02-01T06:12:44;7.10;99.90
20512;DHT22;10414;52.074;5.126;2023-02-01T06:15:11;7.00;99.90
20512;DHT22;10414;52.074;5.126;2023-02-01T06:17:41;7.00;99.90
20512;DHT22;10414;52.074;5.126;2023-02-01T06:20:10;7.00;99.90
20512;DHT22;10414;52.074;5.126;2023-02-01T06:22:38;6.90;99.90
20512;DHT22;10414;52.074;5.126;2023-02-01T06:25:08;6.90;99.90
20512;DHT22;10414;52.074;5.126;2023-02-01T06:27:35;6.90;99.90
20512;DHT22;10414;52.074;5.126;2023-02-01T06:30:03;7.00;99.90
20512;DHT22;10414;52.074;5.126;2023-02-01T06:32:30;7.00;99.90
20512;DHT22;10414;52.074;5.126;2023-02-01T06:34:57;7.00;99.90
20512;DHT22;10414;52.074;5.126;2023-02-01T06:37:26;7.00;99.90
20512;DHT22;10414;52.074;5.126;2023-02-01T06:39:54;7.00;99.90
20512;DHT22;10414;52.074;5.126;2023-02-01T06:42:23;7.00;99.90
20512;DHT22;10414;52.074;5.126;2023-02-01T06:44:51;7.00;99.90
20512;DHT22;10414;52.074;5.126;2023-02-01T06:47:18;7.10;99.90
20512;DHT22;10414;52.074;5.126;2023-02-01T06:49:44;7.10;99.90
20512;DHT22;10414;52.074;5.126;2023-02-01T06:52:11;7.20;99.90
20512;DHT22;10414;52.074;5.126;2023-02-01T06:54:38;7.20;99.90
20512;DHT22;10414;52.074;5.126;2023-02-01T06:57:05;7.20;99.90
20512;DHT22;10414;52.074;5.126;2023-02-01T06:59:33;7.30;99.90
20512;DHT22;10414;52.074;5.126;2023-02-01T07:02:00;7.40;99.90
20512;DHT22;10414;52.074;5.126;2023-02-01T07:04:27;7.30;99.90
20512;DHT22;10414;52.074;5.126;2023-02-01T07:06:54;7.20;99.90
20512;DHT22;10414;52.074;5.126;2023-02-01T07:09:21;7.30;99.90
20512;DHT22;10414;52.074;5.126;2023-02-01T07:11:48;7.30;99.90
20512;DHT22;10414;52.074;5.126;2023-02-01T07:14:15;7.40;99.90
20512;DHT22;10414;52.074;5.126;2023-02-01T07:16:43;7.50;99.90
20512;DHT22;10414;52.074;5.126;2023-02-01T07:19:10;7.40;99.90
20512;DHT22;10414;52.074;5.126;2023-02-01T07:21:37;7.50;99.90
20512;DHT22;10414;52.074;5.126;2023-02-01T07:24:04;7.40;99.90
20512;DHT22;10414;52.074;5.126;2023-02-01T07:26:31;7.40;99.90
20512;DHT22;10414;52.074;5.126;2023-02-01T07:28:58;7.50;99.90
20512;DHT22;10414;52.074;5.126;2023-02-01T07:31:25;7.60;99.90
20512;DHT22;10414;52.074;5.126;2023-02-01T07:33:55;7.50;99.90
20512;DHT22;10414;52.074;5.126;2023-02-01T07:36:24;7.40;99.90
20512;DHT22;10414;52.074;5.126;2023-02-01T07:38:50;7.40;99.90
20512;DHT22;10414;52.074;5.126;2023-02-01T07:41:18;7.50;99.90
20512;DHT22;10414;52.074;5.126;2023-02-01T07:43:45;7.50;99.90
20512;DHT22;10414;52.074;5.126;2023-02-01T07:46:12;7.40;99.90
20512;DHT22;10414;52.074;5.126;2023-02-01T07:48:40;7.40;99.90
20512;DHT22;10414;52.074;5.126;2023-02-01T07:51:11;7.40;99.90
20512;DHT22;10414;52.074;5.126;2023-02-01T07:53:38;7.40;99.90
20512;DHT22;10414;52.074;5.126;2023-02-01T07:56:11;7.40;99.90
20512;DHT22;10414;52.074;5.126;2023-02-01T07:58:38;7.40;99.90
20512;DHT22;10414;52.074;5.126;2023-02-01T08:01:05;7.40;99.90
20512;DHT22;10414;52.074;5.126;2023-02-01T08:03:49;7.40;99.90
20512;DHT22;10414;52.074;5.126;2023-02-01T08:06:18;7.50;99.90
20512;DHT22;10414;52.074;5.126;2023-02-01T08:08:46;7.60;99.90
20512;DHT22;10414;52.074;5.126;2023-02-01T08:11:14;7.50;99.90
20512;DHT22;10414;52.074;5.126;2023-02-01T08:13:41;7.50;99.90
20512;DHT22;10414;52.074;5.126;2023-02-01T08:16:10;7.60;99.90
20512;DHT22;10414;52.074;5.126;2023-02-01T08:18:38;7.90;99.90
20512;DHT22;10414;52.074;5.126;2023-02-01T08:21:06;8.30;99.90
20512;DHT22;10414;52.074;5.126;2023-02-01T08:23:36;8.40;99.90
20512;DHT22;10414;52.074;5.126;2023-02-01T08:26:07;8.30;99.90
20512;DHT22;10414;52.074;5.126;2023-02-01T08:28:35;8.10;99.90
20512;DHT22;10414;52.074;5.126;2023-02-01T08:31:05;8.10;99.90
20512;DHT22;10414;52.074;5.126;2023-02-01T08:33:32;8.40;99.90
20512;DHT22;10414;52.074;5.126;2023-02-01T08:36:01;8.60;99.90
20512;DHT22;10414;52.074;5.126;2023-02-01T08:38:28;9.40;99.90
20512;DHT22;10414;52.074;5.126;2023-02-01T08:40:57;10.00;99.90
20512;DHT22;10414;52.074;5.126;2023-02-01T08:43:24;10.30;99.90
20512;DHT22;10414;52.074;5.126;2023-02-01T08:45:54;10.80;99.90
20512;DHT22;10414;52.074;5.126;2023-02-01T08:48:21;10.90;99.90
20512;DHT22;10414;52.074;5.126;2023-02-01T08:50:48;11.10;99.90
20512;DHT22;10414;52.074;5.126;2023-02-01T08:53:15;11.40;99.90
20512;DHT22;10414;52.074;5.126;2023-02-01T08:55:42;11.20;99.90
20512;DHT22;10414;52.074;5.126;2023-02-01T08:58:10;11.00;99.90
20512;DHT22;10414;52.074;5.126;2023-02-01T09:00:39;10.90;99.90
20512;DHT22;10414;52.074;5.126;2023-02-01T09:03:07;10.90;99.90
20512;DHT22;10414;52.074;5.126;2023-02-01T09:05:35;11.00;99.90
20512;DHT22;10414;52.074;5.126;2023-02-01T09:08:02;11.30;99.90
20512;DHT22;10414;52.074;5.126;2023-02-01T09:10:30;11.50;99.90
20512;DHT22;10414;52.074;5.126;2023-02-01T09:12:57;11.50;99.90
20512;DHT22;10414;52.074;5.126;2023-02-01T09:15:25;11.60;99.90
20512;DHT22;10414;52.074;5.126;2023-02-01T09:17:52;11.30;99.90
20512;DHT22;10414;52.074;5.126;2023-02-01T09:20:19;11.80;99.90
20512;DHT22;10414;52.074;5.126;2023-02-01T09:22:49;12.30;99.90
20512;DHT22;10414;52.074;5.126;2023-02-01T09:25:17;12.10;99.90
20512;DHT22;10414;52.074;5.126;2023-02-01T09:27:43;11.80;99.90
20512;DHT22;10414;52.074;5.126;2023-02-01T09:30:11;11.40;99.90
20512;DHT22;10414;52.074;5.126;2023-02-01T09:32:40;11.10;99.90
20512;DHT22;10414;52.074;5.126;2023-02-01T09:35:07;10.40;99.90
20512;DHT22;10414;52.074;5.126;2023-02-01T09:37:34;10.20;99.90
20512;DHT22;10414;52.074;5.126;2023-02-01T09:40:01;9.90;99.90
20512;DHT22;10414;52.074;5.126;2023-02-01T09:43:07;9.70;99.90
20512;DHT22;10414;52.074;5.126;2023-02-01T09:45:43;9.60;99.90
20512;DHT22;10414;52.074;5.126;2023-02-01T09:48:16;9.30;99.90
20512;DHT22;10414;52.074;5.126;2023-02-01T09:50:47;9.50;99.90
20512;DHT22;10414;52.074;5.126;2023-02-01T09:53:18;9.50;99.90
20512;DHT22;10414;52.074;5.126;2023-02-01T09:55:49;9.40;99.90
20512;DHT22;10414;52.074;5.126;2023-02-01T09:58:20;9.20;99.90
20512;DHT22;10414;52.074;5.126;2023-02-01T10:00:51;9.00;99.90
20512;DHT22;10414;52.074;5.126;2023-02-01T10:03:20;8.90;99.90
20512;DHT22;10414;52.074;5.126;2023-02-01T10:09:06;8.70;99.90
20512;DHT22;10414;52.074;5.126;2023-02-01T10:11:45;8.70;99.90
20512;DHT22;10414;52.074;5.126;2023-02-01T10:14:35;8.80;99.90
20512;DHT22;10414;52.074;5.126;2023-02-01T10:17:08;8.60;99.90
20512;DHT22;10414;52.074;5.126;2023-02-01T10:19:45;8.50;99.90
20512;DHT22;10414;52.074;5.126;2023-02-01T10:22:27;8.30;99.90
20512;DHT22;10414;52.074;5.126;2023-02-01T10:25:02;8.40;99.90
20512;DHT22;10414;52.074;5.126;2023-02-01T10:27:34;8.40;99.90
20512;DHT22;10414;52.074;5.126;2023-02-01T10:30:06;8.20;99.90
20512;DHT22;10414;52.074;5.126;2023-02-01T10:32:41;8.30;99.90
20512;DHT22;10414;52.074;5.126;2023-02-01T10:35:13;8.30;99.90
20512;DHT22;10414;52.074;5.126;2023-02-01T10:37:42;8.30;99.90
20512;DHT22;10414;52.074;5.126;2023-02-01T10:40:16;8.40;99.90
20512;DHT22;10414;52.074;5.126;2023-02-01T10:42:44;8.50;99.90
20512;DHT22;10414;52.074;5.126;2023-02-01T10:45:14;8.50;99.90
20512;DHT22;10414;52.074;5.126;2023-02-01T10:47:44;8.60;99.90
20512;DHT22;10414;52.074;5.126;2023-02-01T10:50:18;8.70;99.90
20512;DHT22;10414;52.074;5.126;2023-02-01T10:52:51;8.50;99.90
20512;DHT22;10414;52.074;5.126;2023-02-01T10:55:40;8.70;99.90
20512;DHT22;10414;52.074;5.126;2023-02-01T10:58:14;8.80;99.90
20512;DHT22;10414;52.074;5.126;2023-02-01T11:00:47;8.70;99.90
20512;DHT22;10414;52.074;5.126;2023-02-01T11:03:34;8.70;99.90
20512;DHT22;10414;52.074;5.126;2023-02-01T11:06:10;8.80;99.90
20512;DHT22;10414;52.074;5.126;2023-02-01T11:08:43;9.00;99.90
20512;DHT22;10414;52.074;5.126;2023-02-01T11:11:11;9.00;99.90
20512;DHT22;10414;52.074;5.126;2023-02-01T11:13:40;9.00;99.90
20512;DHT22;10414;52.074;5.126;2023-02-01T11:16:11;8.80;99.90
20512;DHT22;10414;52.074;5.126;2023-02-01T11:18:39;8.90;99.90
20512;DHT22;10414;52.074;5.126;2023-02-01T11:21:09;8.70;99.90
20512;DHT22;10414;52.074;5.126;2023-02-01T11:23:41;8.70;99.90
20512;DHT22;10414;52.074;5.126;2023-02-01T11:26:13;8.50;99.90
20512;DHT22;10414;52.074;5.126;2023-02-01T11:28:47;8.50;99.90
20512;DHT22;10414;52.074;5.126;2023-02-01T11:31:16;8.60;99.90
20512;DHT22;10414;52.074;5.126;2023-02-01T11:33:49;8.70;99.90
20512;DHT22;10414;52.074;5.126;2023-02-01T11:36:20;8.80;99.90
20512;DHT22;10414;52.074;5.126;2023-02-01T11:38:53;8.90;99.90
20512;DHT22;10414;52.074;5.126;2023-02-01T11:41:22;8.80;99.90
20512;DHT22;10414;52.074;5.126;2023-02-01T11:43:55;8.90;99.90
20512;DHT22;10414;52.074;5.126;2023-02-01T11:46:27;9.10;99.90
20512;DHT22;10414;52.074;5.126;2023-02-01T11:48:55;9.20;99.90
20512;DHT22;10414;52.074;5.126;2023-02-01T11:51:39;9.20;99.90
20512;DHT22;10414;52.074;5.126;2023-02-01T11:54:18;9.30;99.90
20512;DHT22;10414;52.074;5.126;2023-02-01T11:56:57;9.40;99.90
20512;DHT22;10414;52.074;5.126;2023-02-01T11:59:39;9.50;99.90
20512;DHT22;10414;52.074;5.126;2023-02-01T12:02:23;9.30;99.90
20512;DHT22;10414;52.074;5.126;2023-02-01T12:05:19;9.40;99.90
20512;DHT22;10414;52.074;5.126;2023-02-01T12:08:02;9.50;99.90
20512;DHT22;10414;52.074;5.126;2023-02-01T12:10:40;9.50;99.90
20512;DHT22;10414;52.074;5.126;2023-02-01T12:13:20;9.70;99.90
20512;DHT22;10414;52.074;5.126;2023-02-01T12:15:57;9.50;99.90
20512;DHT22;10414;52.074;5.126;2023-02-01T12:18:44;9.60;99.90
20512;DHT22;10414;52.074;5.126;2023-02-01T12:21:30;9.50;99.90
20512;DHT22;10414;52.074;5.126;2023-02-01T12:24:33;9.50;99.90
20512;DHT22;10414;52.074;5.126;2023-02-01T12:27:15;9.50;99.90
20512;DHT22;10414;52.074;5.126;2023-02-01T12:30:10;9.60;99.90
20512;DHT22;10414;52.074;5.126;2023-02-01T12:32:50;9.80;99.90
20512;DHT22;10414;52.074;5.126;2023-02-01T12:35:41;9.70;99.90
20512;DHT22;10414;52.074;5.126;2023-02-01T12:38:20;9.70;99.90
20512;DHT22;10414;52.074;5.126;2023-02-01T12:41:04;9.50;99.90
20512;DHT22;10414;52.074;5.126;2023-02-01T12:43:39;9.50;99.90
20512;DHT22;10414;52.074;5.126;2023-02-01T12:46:11;9.40;99.90
20512;DHT22;10414;52.074;5.126;2023-02-01T12:48:56;9.50;99.90
20512;DHT22;10414;52.074;5.126;2023-02-01T12:51:27;9.70;99.90
20512;DHT22;10414;52.074;5.126;2023-02-01T12:54:02;9.80;99.90
20512;DHT22;10414;52.074;5.126;2023-02-01T12:56:37;9.80;99.90
20512;DHT22;10414;52.074;5.126;2023-02-01T12:59:13;9.90;99.90
20512;DHT22;10414;52.074;5.126;2023-02-01T13:01:48;9.90;99.90
20512;DHT22;10414;52.074;5.126;2023-02-01T13:04:20;9.90;99.90
20512;DHT22;10414;52.074;5.126;2023-02-01T13:06:53;9.70;99.90
20512;DHT22;10414;52.074;5.126;2023-02-01T13:09:24;9.70;99.90
20512;DHT22;10414;52.074;5.126;2023-02-01T13:11:57;9.80;99.90
20512;DHT22;10414;52.074;5.126;2023-02-01T13:14:32;9.80;99.90
20512;DHT22;10414;52.074;5.126;2023-02-01T13:17:02;9.80;99.90
20512;DHT22;10414;52.074;5.126;2023-02-01T13:19:39;9.60;99.90
20512;DHT22;10414;52.074;5.126;2023-02-01T13:22:11;9.60;99.90
20512;DHT22;10414;52.074;5.126;2023-02-01T13:24:42;9.60;99.90
20512;DHT22;10414;52.074;5.126;2023-02-01T13:27:13;9.50;99.90
20512;DHT22;10414;52.074;5.126;2023-02-01T13:29:55;9.50;99.90
20512;DHT22;10414;52.074;5.126;2023-02-01T13:32:43;9.50;99.90
20512;DHT22;10414;52.074;5.126;2023-02-01T13:35:24;9.60;99.90
20512;DHT22;10414;52.074;5.126;2023-02-01T13:38:06;9.60;99.90
20512;DHT22;10414;52.074;5.126;2023-02-01T13:40:41;9.70;99.90
20512;DHT22;10414;52.074;5.126;2023-02-01T13:43:14;9.60;99.90
20512;DHT22;10414;52.074;5.126;2023-02-01T13:45:46;9.60;99.90
20512;DHT22;10414;52.074;5.126;2023-02-01T13:48:20;9.50;99.90
20512;DHT22;10414;52.074;5.126;2023-02-01T13:50:52;9.60;99.90
20512;DHT22;10414;52.074;5.126;2023-02-01T13:53:25;9.60;99.90
20512;DHT22;10414;52.074;5.126;2023-02-01T13:55:59;9.50;99.90
20512;DHT22;10414;52.074;5.126;2023-02-01T13:58:33;9.50;99.90
20512;DHT22;10414;52.074;5.126;2023-02-01T14:01:32;9.50;99.90
20512;DHT22;10414;52.074;5.126;2023-02-01T14:04:01;9.50;99.90
20512;DHT22;10414;52.074;5.126;2023-02-01T14:06:50;9.40;99.90
20512;DHT22;10414;52.074;5.126;2023-02-01T14:09:34;9.60;99.90
20512;DHT22;10414;52.074;5.126;2023-02-01T14:15:21;9.60;99.90
20512;DHT22;10414;52.074;5.126;2023-02-01T14:17:49;9.70;99.90
20512;DHT22;10414;52.074;5.126;2023-02-01T14:20:43;9.60;99.90
20512;DHT22;10414;52.074;5.126;2023-02-01T14:23:37;9.60;99.90
20512;DHT22;10414;52.074;5.126;2023-02-01T14:26:11;9.70;99.90
20512;DHT22;10414;52.074;5.126;2023-02-01T14:28:44;9.70;99.90
20512;DHT22;10414;52.074;5.126;2023-02-01T14:31:37;9.60;99.90
20512;DHT22;10414;52.074;5.126;2023-02-01T14:34:13;9.50;99.90
20512;DHT22;10414;52.074;5.126;2023-02-01T14:36:45;9.50;99.90
20512;DHT22;10414;52.074;5.126;2023-02-01T14:39:21;9.50;99.90
20512;DHT22;10414;52.074;5.126;2023-02-01T14:41:54;9.50;99.90
20512;DHT22;10414;52.074;5.126;2023-02-01T14:44:27;9.50;99.90
20512;DHT22;10414;52.074;5.126;2023-02-01T14:47:27;9.50;99.90
20512;DHT22;10414;52.074;5.126;2023-02-01T14:49:58;9.50;99.90
20512;DHT22;10414;52.074;5.126;2023-02-01T14:52:30;9.50;99.90
20512;DHT22;10414;52.074;5.126;2023-02-01T14:55:04;9.30;99.90
20512;DHT22;10414;52.074;5.126;2023-02-01T14:57:34;9.30;99.90
20512;DHT22;10414;52.074;5.126;2023-02-01T15:00:15;9.30;99.90
20512;DHT22;10414;52.074;5.126;2023-02-01T15:02:46;9.30;99.90
20512;DHT22;10414;52.074;5.126;2023-02-01T15:05:35;9.40;99.90
20512;DHT22;10414;52.074;5.126;2023-02-01T15:08:07;9.30;99.90
20512;DHT22;10414;52.074;5.126;2023-02-01T15:10:42;9.40;99.90
20512;DHT22;10414;52.074;5.126;2023-02-01T15:13:19;9.30;99.90
20512;DHT22;10414;52.074;5.126;2023-02-01T15:16:00;9.30;99.90
20512;DHT22;10414;52.074;5.126;2023-02-01T15:18:29;9.30;99.90
20512;DHT22;10414;52.074;5.126;2023-02-01T15:20:57;9.40;99.90
20512;DHT22;10414;52.074;5.126;2023-02-01T15:23:24;9.40;99.90
20512;DHT22;10414;52.074;5.126;2023-02-01T15:25:51;9.40;99.90
20512;DHT22;10414;52.074;5.126;2023-02-01T15:28:18;9.50;99.90
20512;DHT22;10414;52.074;5.126;2023-02-01T15:30:53;9.50;99.90
20512;DHT22;10414;52.074;5.126;2023-02-01T15:33:20;9.40;99.90
20512;DHT22;10414;52.074;5.126;2023-02-01T15:35:49;9.50;99.90
20512;DHT22;10414;52.074;5.126;2023-02-01T15:38:25;9.40;99.90
20512;DHT22;10414;52.074;5.126;2023-02-01T15:40:58;9.40;99.90
20512;DHT22;10414;52.074;5.126;2023-02-01T15:43:27;9.40;99.90
20512;DHT22;10414;52.074;5.126;2023-02-01T15:45:56;9.50;99.90
20512;DHT22;10414;52.074;5.126;2023-02-01T15:48:26;9.40;99.90
20512;DHT22;10414;52.074;5.126;2023-02-01T15:50:55;9.40;99.90
20512;DHT22;10414;52.074;5.126;2023-02-01T15:53:24;9.50;99.90
20512;DHT22;10414;52.074;5.126;2023-02-01T15:55:57;9.50;99.90
20512;DHT22;10414;52.074;5.126;2023-02-01T15:58:26;9.40;99.90
20512;DHT22;10414;52.074;5.126;2023-02-01T16:00:55;9.40;99.90
20512;DHT22;10414;52.074;5.126;2023-02-01T16:03:34;9.40;99.90
20512;DHT22;10414;52.074;5.126;2023-02-01T16:06:04;9.20;99.90
20512;DHT22;10414;52.074;5.126;2023-02-01T16:08:32;9.20;99.90
20512;DHT22;10414;52.074;5.126;2023-02-01T16:11:21;9.30;99.90
20512;DHT22;10414;52.074;5.126;2023-02-01T16:13:49;9.20;99.90
20512;DHT22;10414;52.074;5.126;2023-02-01T16:16:16;9.10;99.90
20512;DHT22;10414;52.074;5.126;2023-02-01T16:18:43;9.20;99.90
20512;DHT22;10414;52.074;5.126;2023-02-01T16:21:12;9.10;99.90
20512;DHT22;10414;52.074;5.126;2023-02-01T16:23:39;9.20;99.90
20512;DHT22;10414;52.074;5.126;2023-02-01T16:26:06;9.20;99.90